Back to Top

Language: 

My Weather Underground Personal Weather Station Historical Data with Graphs...

Delerius Weather Station Historical Data
Daily Summary for March 26, 2017 Units:  Both    English   Metric
« Previous Day
Next Day »
Daily Weekly Monthly Yearly Custom
  High: Low: Average:
Temperature: 57.9 °F /  14.4 °C 30.6 °F /  -0.8 °C 44.8 °F /  7.1 °C
Dew Point: 40.8 °F /  4.9 °C 27.7 °F /  -2.4 °C 34.9 °F /  1.6 °C
Humidity: 91 % 44 % 70 %
Wind Speed: 8.0 mph /  12.9 km/h - 2.9 mph /  4.7 km/h
Wind Gust: 16.0 mph /  25.7 km/h - -
Wind:- - East
Pressure: 30.40 in /  1029.3 hPa 30.29 in /  1025.6 hPa -
Precipitation: 0.00 in /  0 mm    
Historical Graphs
 
 
Tabular Data for March 26, 2017
Time Temperature Dew Point Pressure Wind Wind Speed Wind Gust Humidity Rainfall Rate (Hourly) solar Conditions
00:04 35.4 °F /  1.9 °C 30.5 °F /  -0.8 °C 30.40 in /  1029.3 hPa Calm     82 % 0.00 in /  0 mm 0 W/m2
00:09 35.2 °F /  1.8 °C 30.3 °F /  -0.9 °C 30.40 in /  1029.3 hPa Calm     82 % 0.00 in /  0 mm 0 W/m2
00:14 35.2 °F /  1.8 °C 30.6 °F /  -0.8 °C 30.40 in /  1029.3 hPa Calm     83 % 0.00 in /  0 mm 0 W/m2
00:19 35.1 °F /  1.7 °C 30.4 °F /  -0.9 °C 30.40 in /  1029.3 hPa Calm   2.0 mph /  3.2 km/h 83 % 0.00 in /  0 mm 0 W/m2
00:24 35.2 °F /  1.8 °C 30.6 °F /  -0.8 °C 30.40 in /  1029.3 hPa NE 1.0 mph /  1.6 km/h 2.0 mph /  3.2 km/h 83 % 0.00 in /  0 mm 0 W/m2
00:29 35.2 °F /  1.8 °C 30.3 °F /  -0.9 °C 30.40 in /  1029.3 hPa NE 1.0 mph /  1.6 km/h 2.0 mph /  3.2 km/h 82 % 0.00 in /  0 mm 0 W/m2
00:30 35.2 °F /  1.8 °C 30.3 °F /  -0.9 °C 30.40 in /  1029.3 hPa NE 1.0 mph /  1.6 km/h 2.0 mph /  3.2 km/h 82 % 0.00 in /  0 mm 0 W/m2
00:35 35.2 °F /  1.8 °C 30.3 °F /  -0.9 °C 30.39 in /  1029 hPa Calm   2.0 mph /  3.2 km/h 82 % 0.00 in /  0 mm 0 W/m2
00:40 35.2 °F /  1.8 °C 30.3 °F /  -0.9 °C 30.39 in /  1029 hPa Calm   2.0 mph /  3.2 km/h 82 % 0.00 in /  0 mm 0 W/m2
00:45 35.2 °F /  1.8 °C 30.3 °F /  -0.9 °C 30.39 in /  1029 hPa Calm   2.0 mph /  3.2 km/h 82 % 0.00 in /  0 mm 0 W/m2
00:50 35.2 °F /  1.8 °C 30.6 °F /  -0.8 °C 30.39 in /  1029 hPa Calm     83 % 0.00 in /  0 mm 0 W/m2
00:55 35.1 °F /  1.7 °C 30.1 °F /  -1.1 °C 30.39 in /  1029 hPa Calm     82 % 0.00 in /  0 mm 0 W/m2
02:00 34.7 °F /  1.5 °C 29.8 °F /  -1.2 °C 30.38 in /  1028.7 hPa Calm     82 % 0.00 in /  0 mm 0 W/m2
02:05 34.3 °F /  1.3 °C 29.4 °F /  -1.4 °C 30.38 in /  1028.7 hPa Calm     82 % 0.00 in /  0 mm 0 W/m2
02:10 34.2 °F /  1.2 °C 29.5 °F /  -1.4 °C 30.38 in /  1028.7 hPa Calm     83 % 0.00 in /  0 mm 0 W/m2
02:20 33.8 °F /  1 °C 29.5 °F /  -1.4 °C 30.39 in /  1029 hPa Calm     84 % 0.00 in /  0 mm 0 W/m2
02:25 33.6 °F /  0.9 °C 29.3 °F /  -1.5 °C 30.38 in /  1028.7 hPa Calm     84 % 0.00 in /  0 mm 0 W/m2
02:30 33.6 °F /  0.9 °C 29.3 °F /  -1.5 °C 30.38 in /  1028.7 hPa Calm     84 % 0.00 in /  0 mm 0 W/m2
02:35 33.6 °F /  0.9 °C 29.3 °F /  -1.5 °C 30.38 in /  1028.7 hPa Calm     84 % 0.00 in /  0 mm 0 W/m2
02:41 33.4 °F /  0.8 °C 29.1 °F /  -1.6 °C 30.38 in /  1028.7 hPa Calm     84 % 0.00 in /  0 mm 0 W/m2
02:42 33.4 °F /  0.8 °C 29.1 °F /  -1.6 °C 30.38 in /  1028.7 hPa Calm     84 % 0.00 in /  0 mm 0 W/m2
02:47 33.3 °F /  0.7 °C 28.9 °F /  -1.7 °C 30.38 in /  1028.7 hPa Calm     84 % 0.00 in /  0 mm 0 W/m2
02:52 33.1 °F /  0.6 °C 28.8 °F /  -1.8 °C 30.38 in /  1028.7 hPa Calm     84 % 0.00 in /  0 mm 0 W/m2
02:57 33.1 °F /  0.6 °C 29.1 °F /  -1.6 °C 30.37 in /  1028.3 hPa Calm     85 % 0.00 in /  0 mm 0 W/m2
03:02 33.1 °F /  0.6 °C 29.1 °F /  -1.6 °C 30.37 in /  1028.3 hPa Calm   2.0 mph /  3.2 km/h 85 % 0.00 in /  0 mm 0 W/m2
03:07 32.9 °F /  0.5 °C 28.9 °F /  -1.7 °C 30.37 in /  1028.3 hPa Calm   2.0 mph /  3.2 km/h 85 % 0.00 in /  0 mm 0 W/m2
03:12 32.7 °F /  0.4 °C 28.7 °F /  -1.8 °C 30.37 in /  1028.3 hPa Calm     85 % 0.00 in /  0 mm 0 W/m2
03:17 32.7 °F /  0.4 °C 29.0 °F /  -1.7 °C 30.37 in /  1028.3 hPa Calm     86 % 0.00 in /  0 mm 0 W/m2
03:22 32.7 °F /  0.4 °C 29.0 °F /  -1.7 °C 30.38 in /  1028.7 hPa Calm     86 % 0.00 in /  0 mm 0 W/m2
03:32 32.5 °F /  0.3 °C 28.8 °F /  -1.8 °C 30.37 in /  1028.3 hPa Calm   1.0 mph /  1.6 km/h 86 % 0.00 in /  0 mm 0 W/m2
03:37 32.5 °F /  0.3 °C 28.8 °F /  -1.8 °C 30.37 in /  1028.3 hPa Calm   1.0 mph /  1.6 km/h 86 % 0.00 in /  0 mm 0 W/m2
03:42 32.5 °F /  0.3 °C 28.8 °F /  -1.8 °C 30.37 in /  1028.3 hPa Calm     86 % 0.00 in /  0 mm 0 W/m2
03:47 32.4 °F /  0.2 °C 28.6 °F /  -1.9 °C 30.37 in /  1028.3 hPa Calm     86 % 0.00 in /  0 mm 0 W/m2
03:52 32.4 °F /  0.2 °C 28.9 °F /  -1.7 °C 30.37 in /  1028.3 hPa Calm     87 % 0.00 in /  0 mm 0 W/m2
03:57 32.4 °F /  0.2 °C 28.9 °F /  -1.7 °C 30.37 in /  1028.3 hPa Calm     87 % 0.00 in /  0 mm 0 W/m2
04:02 32.4 °F /  0.2 °C 28.9 °F /  -1.7 °C 30.37 in /  1028.3 hPa Calm     87 % 0.00 in /  0 mm 0 W/m2
04:03 32.4 °F /  0.2 °C 28.9 °F /  -1.7 °C 30.37 in /  1028.3 hPa Calm     87 % 0.00 in /  0 mm 0 W/m2
04:08 32.2 °F /  0.1 °C 28.7 °F /  -1.8 °C 30.37 in /  1028.3 hPa Calm     87 % 0.00 in /  0 mm 0 W/m2
04:13 32.2 °F /  0.1 °C 28.7 °F /  -1.8 °C 30.37 in /  1028.3 hPa Calm     87 % 0.00 in /  0 mm 0 W/m2
04:18 32.2 °F /  0.1 °C 28.7 °F /  -1.8 °C 30.36 in /  1028 hPa Calm     87 % 0.00 in /  0 mm 0 W/m2
04:23 32.0 °F /  0 °C 28.6 °F /  -1.9 °C 30.36 in /  1028 hPa Calm     87 % 0.00 in /  0 mm 0 W/m2
04:28 31.8 °F /  -0.1 °C 28.4 °F /  -2 °C 30.36 in /  1028 hPa Calm     87 % 0.00 in /  0 mm 0 W/m2
04:33 31.8 °F /  -0.1 °C 28.7 °F /  -1.8 °C 30.36 in /  1028 hPa Calm     88 % 0.00 in /  0 mm 0 W/m2
04:38 31.6 °F /  -0.2 °C 28.5 °F /  -1.9 °C 30.37 in /  1028.3 hPa Calm     88 % 0.00 in /  0 mm 0 W/m2
04:43 31.6 °F /  -0.2 °C 28.5 °F /  -1.9 °C 30.37 in /  1028.3 hPa Calm     88 % 0.00 in /  0 mm 0 W/m2
04:48 31.5 °F /  -0.3 °C 28.3 °F /  -2.1 °C 30.37 in /  1028.3 hPa Calm     88 % 0.00 in /  0 mm 0 W/m2
04:53 31.5 °F /  -0.3 °C 28.3 °F /  -2.1 °C 30.36 in /  1028 hPa Calm     88 % 0.00 in /  0 mm 0 W/m2
04:58 31.5 °F /  -0.3 °C 28.3 °F /  -2.1 °C 30.36 in /  1028 hPa Calm     88 % 0.00 in /  0 mm 0 W/m2
05:03 31.3 °F /  -0.4 °C 28.4 °F /  -2 °C 30.36 in /  1028 hPa Calm     89 % 0.00 in /  0 mm 0 W/m2
05:08 31.3 °F /  -0.4 °C 28.1 °F /  -2.2 °C 30.36 in /  1028 hPa Calm     88 % 0.00 in /  0 mm 0 W/m2
05:13 31.5 °F /  -0.3 °C 28.6 °F /  -1.9 °C 30.36 in /  1028 hPa Calm     89 % 0.00 in /  0 mm 0 W/m2
05:18 31.5 °F /  -0.3 °C 28.6 °F /  -1.9 °C 30.36 in /  1028 hPa Calm   2.0 mph /  3.2 km/h 89 % 0.00 in /  0 mm 0 W/m2
05:23 31.5 °F /  -0.3 °C 28.6 °F /  -1.9 °C 30.36 in /  1028 hPa NNE 1.0 mph /  1.6 km/h 2.0 mph /  3.2 km/h 89 % 0.00 in /  0 mm 0 W/m2
05:28 31.3 °F /  -0.4 °C 28.4 °F /  -2 °C 30.36 in /  1028 hPa Calm   2.0 mph /  3.2 km/h 89 % 0.00 in /  0 mm 0 W/m2
05:33 31.3 °F /  -0.4 °C 28.4 °F /  -2 °C 30.36 in /  1028 hPa Calm     89 % 0.00 in /  0 mm 0 W/m2
05:38 31.3 °F /  -0.4 °C 28.4 °F /  -2 °C 30.36 in /  1028 hPa Calm     89 % 0.00 in /  0 mm 0 W/m2
05:43 31.3 °F /  -0.4 °C 28.4 °F /  -2 °C 30.36 in /  1028 hPa Calm     89 % 0.00 in /  0 mm 0 W/m2
05:48 31.3 °F /  -0.4 °C 28.4 °F /  -2 °C 30.36 in /  1028 hPa Calm     89 % 0.00 in /  0 mm 0 W/m2
05:53 31.3 °F /  -0.4 °C 28.4 °F /  -2 °C 30.35 in /  1027.7 hPa Calm     89 % 0.00 in /  0 mm 0 W/m2
05:58 31.3 °F /  -0.4 °C 28.4 °F /  -2 °C 30.36 in /  1028 hPa Calm     89 % 0.00 in /  0 mm 0 W/m2
06:03 31.3 °F /  -0.4 °C 28.4 °F /  -2 °C 30.36 in /  1028 hPa Calm     89 % 0.00 in /  0 mm 0 W/m2
06:08 31.1 °F /  -0.5 °C 28.2 °F /  -2.1 °C 30.36 in /  1028 hPa Calm     89 % 0.00 in /  0 mm 0 W/m2
06:13 30.9 °F /  -0.6 °C 28.1 °F /  -2.2 °C 30.36 in /  1028 hPa Calm     89 % 0.00 in /  0 mm 0 W/m2
06:19 30.9 °F /  -0.6 °C 28.1 °F /  -2.2 °C 30.36 in /  1028 hPa Calm     89 % 0.00 in /  0 mm 0 W/m2
06:29 30.9 °F /  -0.6 °C 28.1 °F /  -2.2 °C 30.36 in /  1028 hPa Calm     89 % 0.00 in /  0 mm 0 W/m2
06:34 30.7 °F /  -0.7 °C 27.9 °F /  -2.3 °C 30.36 in /  1028 hPa Calm     89 % 0.00 in /  0 mm 0 W/m2
06:39 30.7 °F /  -0.7 °C 27.9 °F /  -2.3 °C 30.36 in /  1028 hPa Calm     89 % 0.00 in /  0 mm 0 W/m2
06:44 30.6 °F /  -0.8 °C 27.7 °F /  -2.4 °C 30.36 in /  1028 hPa Calm     89 % 0.00 in /  0 mm 5 W/m2
06:49 30.7 °F /  -0.7 °C 28.2 °F /  -2.1 °C 30.36 in /  1028 hPa Calm     90 % 0.00 in /  0 mm 0 W/m2
06:54 30.7 °F /  -0.7 °C 28.2 °F /  -2.1 °C 30.36 in /  1028 hPa Calm     90 % 0.00 in /  0 mm 0 W/m2
06:59 30.7 °F /  -0.7 °C 28.2 °F /  -2.1 °C 30.36 in /  1028 hPa Calm     90 % 0.00 in /  0 mm 5 W/m2
07:04 30.7 °F /  -0.7 °C 28.2 °F /  -2.1 °C 30.36 in /  1028 hPa Calm     90 % 0.00 in /  0 mm 7 W/m2
07:14 30.7 °F /  -0.7 °C 28.2 °F /  -2.1 °C 30.37 in /  1028.3 hPa Calm     90 % 0.00 in /  0 mm 18 W/m2
07:19 30.7 °F /  -0.7 °C 28.2 °F /  -2.1 °C 30.36 in /  1028 hPa Calm     90 % 0.00 in /  0 mm 23 W/m2
07:24 30.7 °F /  -0.7 °C 28.2 °F /  -2.1 °C 30.37 in /  1028.3 hPa Calm     90 % 0.00 in /  0 mm 28 W/m2
07:29 30.9 °F /  -0.6 °C 28.3 °F /  -2.1 °C 30.37 in /  1028.3 hPa Calm     90 % 0.00 in /  0 mm 33 W/m2
07:34 31.1 °F /  -0.5 °C 28.5 °F /  -1.9 °C 30.37 in /  1028.3 hPa Calm     90 % 0.00 in /  0 mm 40 W/m2
07:39 31.3 °F /  -0.4 °C 28.7 °F /  -1.8 °C 30.37 in /  1028.3 hPa Calm     90 % 0.00 in /  0 mm 47 W/m2
07:44 31.3 °F /  -0.4 °C 28.7 °F /  -1.8 °C 30.37 in /  1028.3 hPa Calm     90 % 0.00 in /  0 mm 51 W/m2
07:49 31.5 °F /  -0.3 °C 29.1 °F /  -1.6 °C 30.37 in /  1028.3 hPa Calm     91 % 0.00 in /  0 mm 56 W/m2
07:54 31.6 °F /  -0.2 °C 29.3 °F /  -1.5 °C 30.37 in /  1028.3 hPa Calm   2.0 mph /  3.2 km/h 91 % 0.00 in /  0 mm 62 W/m2
07:59 32.0 °F /  0 °C 29.7 °F /  -1.3 °C 30.37 in /  1028.3 hPa Calm   2.0 mph /  3.2 km/h 91 % 0.00 in /  0 mm 70 W/m2
08:04 32.5 °F /  0.3 °C 30.2 °F /  -1 °C 30.37 in /  1028.3 hPa Calm   2.0 mph /  3.2 km/h 91 % 0.00 in /  0 mm 114 W/m2
08:09 32.9 °F /  0.5 °C 30.6 °F /  -0.8 °C 30.37 in /  1028.3 hPa Calm     91 % 0.00 in /  0 mm 128 W/m2
08:14 33.3 °F /  0.7 °C 30.9 °F /  -0.6 °C 30.37 in /  1028.3 hPa Calm     91 % 0.00 in /  0 mm 135 W/m2
08:19 34.2 °F /  1.2 °C 31.8 °F /  -0.1 °C 30.37 in /  1028.3 hPa Calm     91 % 0.00 in /  0 mm 151 W/m2
08:24 34.9 °F /  1.6 °C 32.0 °F /  0 °C 30.38 in /  1028.7 hPa Calm     89 % 0.00 in /  0 mm 160 W/m2
08:29 35.4 °F /  1.9 °C 32.2 °F /  0.1 °C 30.38 in /  1028.7 hPa Calm     88 % 0.00 in /  0 mm 162 W/m2
08:34 36.3 °F /  2.4 °C 32.8 °F /  0.4 °C 30.38 in /  1028.7 hPa Calm     87 % 0.00 in /  0 mm 186 W/m2
08:39 37.2 °F /  2.9 °C 33.1 °F /  0.6 °C 30.37 in /  1028.3 hPa Calm     85 % 0.00 in /  0 mm 188 W/m2
08:44 37.9 °F /  3.3 °C 33.5 °F /  0.8 °C 30.37 in /  1028.3 hPa Calm   1.0 mph /  1.6 km/h 84 % 0.00 in /  0 mm 227 W/m2
08:49 38.8 °F /  3.8 °C 34.1 °F /  1.2 °C 30.37 in /  1028.3 hPa Calm   1.0 mph /  1.6 km/h 83 % 0.00 in /  0 mm 262 W/m2
08:54 39.4 °F /  4.1 °C 34.0 °F /  1.1 °C 30.37 in /  1028.3 hPa Calm   1.0 mph /  1.6 km/h 81 % 0.00 in /  0 mm 288 W/m2
08:59 39.9 °F /  4.4 °C 34.2 °F /  1.2 °C 30.37 in /  1028.3 hPa Calm     80 % 0.00 in /  0 mm 294 W/m2
09:04 40.3 °F /  4.6 °C 34.6 °F /  1.4 °C 30.37 in /  1028.3 hPa Calm     80 % 0.00 in /  0 mm 309 W/m2
09:09 40.6 °F /  4.8 °C 35.3 °F /  1.8 °C 30.37 in /  1028.3 hPa Calm     81 % 0.00 in /  0 mm 320 W/m2
09:14 41.5 °F /  5.3 °C 35.8 °F /  2.1 °C 30.37 in /  1028.3 hPa Calm   1.0 mph /  1.6 km/h 80 % 0.00 in /  0 mm 327 W/m2
09:19 42.4 °F /  5.8 °C 36.1 °F /  2.3 °C 30.37 in /  1028.3 hPa Calm   1.0 mph /  1.6 km/h 78 % 0.00 in /  0 mm 315 W/m2
09:24 43.3 °F /  6.3 °C 36.6 °F /  2.6 °C 30.36 in /  1028 hPa Calm   1.0 mph /  1.6 km/h 77 % 0.00 in /  0 mm 338 W/m2
09:29 44.1 °F /  6.7 °C 36.3 °F /  2.4 °C 30.36 in /  1028 hPa Calm   2.0 mph /  3.2 km/h 74 % 0.00 in /  0 mm 348 W/m2
09:34 44.8 °F /  7.1 °C 35.9 °F /  2.2 °C 30.36 in /  1028 hPa NW 1.0 mph /  1.6 km/h 4.0 mph /  6.4 km/h 71 % 0.00 in /  0 mm 388 W/m2
09:39 45.1 °F /  7.3 °C 35.9 °F /  2.2 °C 30.36 in /  1028 hPa WNW 1.0 mph /  1.6 km/h 4.0 mph /  6.4 km/h 70 % 0.00 in /  0 mm 385 W/m2
09:44 45.9 °F /  7.7 °C 35.9 °F /  2.2 °C 30.36 in /  1028 hPa Calm   2.0 mph /  3.2 km/h 68 % 0.00 in /  0 mm 404 W/m2
09:49 47.1 °F /  8.4 °C 36.3 °F /  2.4 °C 30.37 in /  1028.3 hPa Calm   1.0 mph /  1.6 km/h 66 % 0.00 in /  0 mm 362 W/m2
09:54 47.8 °F /  8.8 °C 36.2 °F /  2.3 °C 30.37 in /  1028.3 hPa Calm   2.0 mph /  3.2 km/h 64 % 0.00 in /  0 mm 396 W/m2
09:59 48.4 °F /  9.1 °C 35.5 °F /  1.9 °C 30.37 in /  1028.3 hPa NNE 2.0 mph /  3.2 km/h 7.0 mph /  11.3 km/h 61 % 0.00 in /  0 mm 438 W/m2
10:04 48.4 °F /  9.1 °C 35.1 °F /  1.7 °C 30.37 in /  1028.3 hPa NE 3.0 mph /  4.8 km/h 7.0 mph /  11.3 km/h 60 % 0.00 in /  0 mm 427 W/m2
10:09 48.4 °F /  9.1 °C 34.7 °F /  1.5 °C 30.37 in /  1028.3 hPa NE 1.0 mph /  1.6 km/h 6.0 mph /  9.7 km/h 59 % 0.00 in /  0 mm 436 W/m2
10:14 48.7 °F /  9.3 °C 35.0 °F /  1.7 °C 30.37 in /  1028.3 hPa NE 1.0 mph /  1.6 km/h 5.0 mph /  8 km/h 59 % 0.00 in /  0 mm 443 W/m2
10:19 48.9 °F /  9.4 °C 35.2 °F /  1.8 °C 30.37 in /  1028.3 hPa NE 1.0 mph /  1.6 km/h 5.0 mph /  8 km/h 59 % 0.00 in /  0 mm 469 W/m2
10:24 49.3 °F /  9.6 °C 35.1 °F /  1.7 °C 30.37 in /  1028.3 hPa NE 1.0 mph /  1.6 km/h 5.0 mph /  8 km/h 58 % 0.00 in /  0 mm 490 W/m2
10:29 49.5 °F /  9.7 °C 34.8 °F /  1.6 °C 30.37 in /  1028.3 hPa NE 2.0 mph /  3.2 km/h 6.0 mph /  9.7 km/h 57 % 0.00 in /  0 mm 464 W/m2
10:34 49.3 °F /  9.6 °C 35.1 °F /  1.7 °C 30.37 in /  1028.3 hPa ENE 2.0 mph /  3.2 km/h 6.0 mph /  9.7 km/h 58 % 0.00 in /  0 mm 508 W/m2
10:39 49.5 °F /  9.7 °C 35.7 °F /  2.1 °C 30.37 in /  1028.3 hPa NE 1.0 mph /  1.6 km/h 6.0 mph /  9.7 km/h 59 % 0.00 in /  0 mm 490 W/m2
10:44 50.2 °F /  10.1 °C 36.0 °F /  2.2 °C 30.36 in /  1028 hPa NE 1.0 mph /  1.6 km/h 4.0 mph /  6.4 km/h 58 % 0.00 in /  0 mm 531 W/m2
10:49 50.5 °F /  10.3 °C 36.3 °F /  2.4 °C 30.36 in /  1028 hPa Calm   4.0 mph /  6.4 km/h 58 % 0.00 in /  0 mm 548 W/m2
10:54 51.1 °F /  10.6 °C 36.8 °F /  2.7 °C 30.37 in /  1028.3 hPa NE 1.0 mph /  1.6 km/h 7.0 mph /  11.3 km/h 58 % 0.00 in /  0 mm 534 W/m2
10:59 51.3 °F /  10.7 °C 36.5 °F /  2.5 °C 30.36 in /  1028 hPa ENE 2.0 mph /  3.2 km/h 7.0 mph /  11.3 km/h 57 % 0.00 in /  0 mm 566 W/m2
11:04 51.4 °F /  10.8 °C 37.1 °F /  2.8 °C 30.36 in /  1028 hPa East 2.0 mph /  3.2 km/h 6.0 mph /  9.7 km/h 58 % 0.00 in /  0 mm 582 W/m2
11:09 51.6 °F /  10.9 °C 36.9 °F /  2.7 °C 30.36 in /  1028 hPa ENE 2.0 mph /  3.2 km/h 7.0 mph /  11.3 km/h 57 % 0.00 in /  0 mm 596 W/m2
11:14 51.4 °F /  10.8 °C 37.1 °F /  2.8 °C 30.36 in /  1028 hPa NE 4.0 mph /  6.4 km/h 9.0 mph /  14.5 km/h 58 % 0.00 in /  0 mm 603 W/m2
11:19 51.3 °F /  10.7 °C 37.0 °F /  2.8 °C 30.36 in /  1028 hPa NE 5.0 mph /  8 km/h 9.0 mph /  14.5 km/h 58 % 0.00 in /  0 mm 612 W/m2
11:24 51.3 °F /  10.7 °C 37.4 °F /  3 °C 30.37 in /  1028.3 hPa NE 4.0 mph /  6.4 km/h 9.0 mph /  14.5 km/h 59 % 0.00 in /  0 mm 610 W/m2
11:29 51.4 °F /  10.8 °C 37.6 °F /  3.1 °C 30.36 in /  1028 hPa ENE 4.0 mph /  6.4 km/h 9.0 mph /  14.5 km/h 59 % 0.00 in /  0 mm 603 W/m2
11:34 52.0 °F /  11.1 °C 38.5 °F /  3.6 °C 30.36 in /  1028 hPa ENE 3.0 mph /  4.8 km/h 9.0 mph /  14.5 km/h 60 % 0.00 in /  0 mm 612 W/m2
11:37 52.2 °F /  11.2 °C 38.3 °F /  3.5 °C 30.36 in /  1028 hPa ENE 2.0 mph /  3.2 km/h 8.0 mph /  12.9 km/h 59 % 0.00 in /  0 mm 615 W/m2
11:42 52.7 °F /  11.5 °C 38.3 °F /  3.5 °C 30.36 in /  1028 hPa NE 2.0 mph /  3.2 km/h 9.0 mph /  14.5 km/h 58 % 0.00 in /  0 mm 610 W/m2
11:47 53.2 °F /  11.8 °C 38.4 °F /  3.6 °C 30.36 in /  1028 hPa ENE 3.0 mph /  4.8 km/h 9.0 mph /  14.5 km/h 57 % 0.00 in /  0 mm 636 W/m2
11:52 53.8 °F /  12.1 °C 38.0 °F /  3.3 °C 30.36 in /  1028 hPa East 4.0 mph /  6.4 km/h 9.0 mph /  14.5 km/h 55 % 0.00 in /  0 mm 657 W/m2
11:57 53.8 °F /  12.1 °C 38.0 °F /  3.3 °C 30.36 in /  1028 hPa East 4.0 mph /  6.4 km/h 9.0 mph /  14.5 km/h 55 % 0.00 in /  0 mm 640 W/m2
12:02 53.8 °F /  12.1 °C 38.4 °F /  3.6 °C 30.36 in /  1028 hPa East 4.0 mph /  6.4 km/h 8.0 mph /  12.9 km/h 56 % 0.00 in /  0 mm 631 W/m2
12:07 54.0 °F /  12.2 °C 38.1 °F /  3.4 °C 30.35 in /  1027.7 hPa ENE 5.0 mph /  8 km/h 9.0 mph /  14.5 km/h 55 % 0.00 in /  0 mm 677 W/m2
12:12 54.1 °F /  12.3 °C 38.3 °F /  3.5 °C 30.35 in /  1027.7 hPa ENE 4.0 mph /  6.4 km/h 9.0 mph /  14.5 km/h 55 % 0.00 in /  0 mm 633 W/m2
12:17 54.3 °F /  12.4 °C 38.5 °F /  3.6 °C 30.35 in /  1027.7 hPa East 4.0 mph /  6.4 km/h 7.0 mph /  11.3 km/h 55 % 0.00 in /  0 mm 663 W/m2
12:18 54.7 °F /  12.6 °C 38.4 °F /  3.6 °C 30.35 in /  1027.7 hPa ENE 4.0 mph /  6.4 km/h 9.0 mph /  14.5 km/h 54 % 0.00 in /  0 mm 657 W/m2
12:23 54.3 °F /  12.4 °C 36.6 °F /  2.6 °C 30.35 in /  1027.7 hPa ENE 5.0 mph /  8 km/h 11.0 mph /  17.7 km/h 51 % 0.00 in /  0 mm 642 W/m2
12:28 54.7 °F /  12.6 °C 37.4 °F /  3 °C 30.35 in /  1027.7 hPa East 6.0 mph /  9.7 km/h 12.0 mph /  19.3 km/h 52 % 0.00 in /  0 mm 661 W/m2
12:33 54.7 °F /  12.6 °C 37.4 °F /  3 °C 30.35 in /  1027.7 hPa East 5.0 mph /  8 km/h 12.0 mph /  19.3 km/h 52 % 0.00 in /  0 mm 661 W/m2
12:39 54.7 °F /  12.6 °C 37.9 °F /  3.3 °C 30.35 in /  1027.7 hPa ENE 5.0 mph /  8 km/h 10.0 mph /  16.1 km/h 53 % 0.00 in /  0 mm 654 W/m2
12:44 54.9 °F /  12.7 °C 38.0 °F /  3.3 °C 30.35 in /  1027.7 hPa East 5.0 mph /  8 km/h 9.0 mph /  14.5 km/h 53 % 0.00 in /  0 mm 664 W/m2
12:49 54.9 °F /  12.7 °C 38.5 °F /  3.6 °C 30.35 in /  1027.7 hPa ENE 5.0 mph /  8 km/h 9.0 mph /  14.5 km/h 54 % 0.00 in /  0 mm 659 W/m2
12:54 55.0 °F /  12.8 °C 38.2 °F /  3.4 °C 30.35 in /  1027.7 hPa East 5.0 mph /  8 km/h 10.0 mph /  16.1 km/h 53 % 0.00 in /  0 mm 691 W/m2
12:59 55.2 °F /  12.9 °C 38.9 °F /  3.8 °C 30.34 in /  1027.3 hPa East 6.0 mph /  9.7 km/h 13.0 mph /  20.9 km/h 54 % 0.00 in /  0 mm 707 W/m2
13:04 55.8 °F /  13.2 °C 39.4 °F /  4.1 °C 30.34 in /  1027.3 hPa East 6.0 mph /  9.7 km/h 13.0 mph /  20.9 km/h 54 % 0.00 in /  0 mm 666 W/m2
13:09 55.6 °F /  13.1 °C 38.2 °F /  3.4 °C 30.34 in /  1027.3 hPa East 5.0 mph /  8 km/h 11.0 mph /  17.7 km/h 52 % 0.00 in /  0 mm 684 W/m2
13:14 55.6 °F /  13.1 °C 38.7 °F /  3.7 °C 30.34 in /  1027.3 hPa East 6.0 mph /  9.7 km/h 11.0 mph /  17.7 km/h 53 % 0.00 in /  0 mm 684 W/m2
13:19 56.1 °F /  13.4 °C 39.7 °F /  4.3 °C 30.34 in /  1027.3 hPa East 5.0 mph /  8 km/h 10.0 mph /  16.1 km/h 54 % 0.00 in /  0 mm 679 W/m2
13:24 56.3 °F /  13.5 °C 37.9 °F /  3.3 °C 30.34 in /  1027.3 hPa ENE 5.0 mph /  8 km/h 11.0 mph /  17.7 km/h 50 % 0.00 in /  0 mm 679 W/m2
13:29 56.5 °F /  13.6 °C 37.5 °F /  3.1 °C 30.33 in /  1027 hPa NE 6.0 mph /  9.7 km/h 11.0 mph /  17.7 km/h 49 % 0.00 in /  0 mm 656 W/m2
13:34 56.7 °F /  13.7 °C 37.2 °F /  2.9 °C 30.33 in /  1027 hPa ENE 6.0 mph /  9.7 km/h 11.0 mph /  17.7 km/h 48 % 0.00 in /  0 mm 652 W/m2
13:39 56.7 °F /  13.7 °C 37.2 °F /  2.9 °C 30.33 in /  1027 hPa ENE 5.0 mph /  8 km/h 10.0 mph /  16.1 km/h 48 % 0.00 in /  0 mm 638 W/m2
13:44 56.8 °F /  13.8 °C 37.9 °F /  3.3 °C 30.33 in /  1027 hPa ENE 5.0 mph /  8 km/h 11.0 mph /  17.7 km/h 49 % 0.00 in /  0 mm 599 W/m2
13:49 56.8 °F /  13.8 °C 37.3 °F /  2.9 °C 30.33 in /  1027 hPa ENE 5.0 mph /  8 km/h 11.0 mph /  17.7 km/h 48 % 0.00 in /  0 mm 622 W/m2
13:54 56.8 °F /  13.8 °C 37.9 °F /  3.3 °C 30.33 in /  1027 hPa ENE 5.0 mph /  8 km/h 13.0 mph /  20.9 km/h 49 % 0.00 in /  0 mm 640 W/m2
13:59 57.2 °F /  14 °C 37.1 °F /  2.8 °C 30.33 in /  1027 hPa East 5.0 mph /  8 km/h 13.0 mph /  20.9 km/h 47 % 0.00 in /  0 mm 613 W/m2
14:04 57.4 °F /  14.1 °C 37.3 °F /  2.9 °C 30.33 in /  1027 hPa ENE 6.0 mph /  9.7 km/h 10.0 mph /  16.1 km/h 47 % 0.00 in /  0 mm 573 W/m2
14:09 57.2 °F /  14 °C 37.7 °F /  3.2 °C 30.32 in /  1026.6 hPa ENE 7.0 mph /  11.3 km/h 16.0 mph /  25.7 km/h 48 % 0.00 in /  0 mm 647 W/m2
14:14 57.4 °F /  14.1 °C 38.9 °F /  3.8 °C 30.32 in /  1026.6 hPa ENE 6.0 mph /  9.7 km/h 16.0 mph /  25.7 km/h 50 % 0.00 in /  0 mm 647 W/m2
14:19 57.6 °F /  14.2 °C 38.0 °F /  3.3 °C 30.32 in /  1026.6 hPa ENE 5.0 mph /  8 km/h 12.0 mph /  19.3 km/h 48 % 0.00 in /  0 mm 631 W/m2
14:24 57.0 °F /  13.9 °C 37.5 °F /  3.1 °C 30.32 in /  1026.6 hPa ENE 6.0 mph /  9.7 km/h 12.0 mph /  19.3 km/h 48 % 0.00 in /  0 mm 587 W/m2
14:29 57.2 °F /  14 °C 37.7 °F /  3.2 °C 30.32 in /  1026.6 hPa ENE 4.0 mph /  6.4 km/h 10.0 mph /  16.1 km/h 48 % 0.00 in /  0 mm 534 W/m2
14:34 57.4 °F /  14.1 °C 37.8 °F /  3.2 °C 30.32 in /  1026.6 hPa ENE 5.0 mph /  8 km/h 10.0 mph /  16.1 km/h 48 % 0.00 in /  0 mm 566 W/m2
14:39 57.6 °F /  14.2 °C 36.9 °F /  2.7 °C 30.32 in /  1026.6 hPa ENE 5.0 mph /  8 km/h 10.0 mph /  16.1 km/h 46 % 0.00 in /  0 mm 575 W/m2
14:44 57.6 °F /  14.2 °C 36.9 °F /  2.7 °C 30.32 in /  1026.6 hPa East 5.0 mph /  8 km/h 10.0 mph /  16.1 km/h 46 % 0.00 in /  0 mm 478 W/m2
14:49 57.7 °F /  14.3 °C 36.5 °F /  2.5 °C 30.31 in /  1026.3 hPa East 5.0 mph /  8 km/h 11.0 mph /  17.7 km/h 45 % 0.00 in /  0 mm 504 W/m2
14:54 57.7 °F /  14.3 °C 36.5 °F /  2.5 °C 30.31 in /  1026.3 hPa East 5.0 mph /  8 km/h 11.0 mph /  17.7 km/h 45 % 0.00 in /  0 mm 406 W/m2
14:59 57.4 °F /  14.1 °C 36.2 °F /  2.3 °C 30.32 in /  1026.6 hPa ENE 5.0 mph /  8 km/h 11.0 mph /  17.7 km/h 45 % 0.00 in /  0 mm 422 W/m2
15:04 57.4 °F /  14.1 °C 36.2 °F /  2.3 °C 30.31 in /  1026.3 hPa ENE 5.0 mph /  8 km/h 12.0 mph /  19.3 km/h 45 % 0.00 in /  0 mm 531 W/m2
15:14 57.6 °F /  14.2 °C 35.8 °F /  2.1 °C 30.31 in /  1026.3 hPa ENE 6.0 mph /  9.7 km/h 13.0 mph /  20.9 km/h 44 % 0.00 in /  0 mm 492 W/m2
15:19 57.7 °F /  14.3 °C 36.5 °F /  2.5 °C 30.31 in /  1026.3 hPa ENE 6.0 mph /  9.7 km/h 13.0 mph /  20.9 km/h 45 % 0.00 in /  0 mm 506 W/m2
15:24 57.6 °F /  14.2 °C 36.4 °F /  2.4 °C 30.31 in /  1026.3 hPa ENE 6.0 mph /  9.7 km/h 15.0 mph /  24.1 km/h 45 % 0.00 in /  0 mm 483 W/m2
15:29 57.7 °F /  14.3 °C 37.1 °F /  2.8 °C 30.31 in /  1026.3 hPa ENE 6.0 mph /  9.7 km/h 15.0 mph /  24.1 km/h 46 % 0.00 in /  0 mm 490 W/m2
15:34 57.9 °F /  14.4 °C 37.2 °F /  2.9 °C 30.31 in /  1026.3 hPa ENE 5.0 mph /  8 km/h 11.0 mph /  17.7 km/h 46 % 0.00 in /  0 mm 462 W/m2
15:39 57.7 °F /  14.3 °C 36.5 °F /  2.5 °C 30.31 in /  1026.3 hPa ENE 6.0 mph /  9.7 km/h 12.0 mph /  19.3 km/h 45 % 0.00 in /  0 mm 499 W/m2
15:44 57.6 °F /  14.2 °C 36.4 °F /  2.4 °C 30.31 in /  1026.3 hPa East 7.0 mph /  11.3 km/h 13.0 mph /  20.9 km/h 45 % 0.00 in /  0 mm 461 W/m2
15:49 57.4 °F /  14.1 °C 36.2 °F /  2.3 °C 30.31 in /  1026.3 hPa East 6.0 mph /  9.7 km/h 13.0 mph /  20.9 km/h 45 % 0.00 in /  0 mm 471 W/m2
15:54 57.7 °F /  14.3 °C 36.5 °F /  2.5 °C 30.30 in /  1026 hPa East 5.0 mph /  8 km/h 10.0 mph /  16.1 km/h 45 % 0.00 in /  0 mm 448 W/m2
15:59 57.7 °F /  14.3 °C 36.5 °F /  2.5 °C 30.31 in /  1026.3 hPa East 6.0 mph /  9.7 km/h 11.0 mph /  17.7 km/h 45 % 0.00 in /  0 mm 446 W/m2
16:04 57.7 °F /  14.3 °C 36.0 °F /  2.2 °C 30.30 in /  1026 hPa East 7.0 mph /  11.3 km/h 11.0 mph /  17.7 km/h 44 % 0.00 in /  0 mm 431 W/m2
16:09 57.6 °F /  14.2 °C 36.4 °F /  2.4 °C 30.30 in /  1026 hPa ENE 6.0 mph /  9.7 km/h 11.0 mph /  17.7 km/h 45 % 0.00 in /  0 mm 396 W/m2
16:14 57.7 °F /  14.3 °C 36.5 °F /  2.5 °C 30.30 in /  1026 hPa East 6.0 mph /  9.7 km/h 11.0 mph /  17.7 km/h 45 % 0.00 in /  0 mm 387 W/m2
16:19 57.7 °F /  14.3 °C 36.5 °F /  2.5 °C 30.30 in /  1026 hPa East 6.0 mph /  9.7 km/h 11.0 mph /  17.7 km/h 45 % 0.00 in /  0 mm 415 W/m2
16:24 57.7 °F /  14.3 °C 36.0 °F /  2.2 °C 30.30 in /  1026 hPa East 7.0 mph /  11.3 km/h 14.0 mph /  22.5 km/h 44 % 0.00 in /  0 mm 346 W/m2
16:29 57.6 °F /  14.2 °C 36.4 °F /  2.4 °C 30.30 in /  1026 hPa East 7.0 mph /  11.3 km/h 14.0 mph /  22.5 km/h 45 % 0.00 in /  0 mm 401 W/m2
16:34 57.6 °F /  14.2 °C 36.4 °F /  2.4 °C 30.30 in /  1026 hPa East 6.0 mph /  9.7 km/h 11.0 mph /  17.7 km/h 45 % 0.00 in /  0 mm 367 W/m2
16:36 57.6 °F /  14.2 °C 36.4 °F /  2.4 °C 30.30 in /  1026 hPa East 6.0 mph /  9.7 km/h 12.0 mph /  19.3 km/h 45 % 0.00 in /  0 mm 397 W/m2
16:41 57.7 °F /  14.3 °C 37.1 °F /  2.8 °C 30.30 in /  1026 hPa East 5.0 mph /  8 km/h 12.0 mph /  19.3 km/h 46 % 0.00 in /  0 mm 392 W/m2
16:46 57.7 °F /  14.3 °C 36.5 °F /  2.5 °C 30.30 in /  1026 hPa East 5.0 mph /  8 km/h 10.0 mph /  16.1 km/h 45 % 0.00 in /  0 mm 353 W/m2
16:51 57.9 °F /  14.4 °C 37.8 °F /  3.2 °C 30.29 in /  1025.6 hPa East 5.0 mph /  8 km/h 10.0 mph /  16.1 km/h 47 % 0.00 in /  0 mm 316 W/m2
16:56 57.9 °F /  14.4 °C 37.8 °F /  3.2 °C 30.29 in /  1025.6 hPa East 4.0 mph /  6.4 km/h 10.0 mph /  16.1 km/h 47 % 0.00 in /  0 mm 283 W/m2
17:01 57.7 °F /  14.3 °C 38.2 °F /  3.4 °C 30.29 in /  1025.6 hPa ENE 5.0 mph /  8 km/h 10.0 mph /  16.1 km/h 48 % 0.00 in /  0 mm 297 W/m2
17:06 57.2 °F /  14 °C 38.7 °F /  3.7 °C 30.29 in /  1025.6 hPa ENE 6.0 mph /  9.7 km/h 10.0 mph /  16.1 km/h 50 % 0.00 in /  0 mm 278 W/m2
17:11 56.8 °F /  13.8 °C 38.9 °F /  3.8 °C 30.29 in /  1025.6 hPa East 7.0 mph /  11.3 km/h 12.0 mph /  19.3 km/h 51 % 0.00 in /  0 mm 285 W/m2
17:16 56.7 °F /  13.7 °C 38.7 °F /  3.7 °C 30.29 in /  1025.6 hPa East 6.0 mph /  9.7 km/h 12.0 mph /  19.3 km/h 51 % 0.00 in /  0 mm 251 W/m2
17:21 56.7 °F /  13.7 °C 39.2 °F /  4 °C 30.29 in /  1025.6 hPa East 5.0 mph /  8 km/h 11.0 mph /  17.7 km/h 52 % 0.00 in /  0 mm 265 W/m2
17:26 56.5 °F /  13.6 °C 39.5 °F /  4.2 °C 30.29 in /  1025.6 hPa East 5.0 mph /  8 km/h 10.0 mph /  16.1 km/h 53 % 0.00 in /  0 mm 250 W/m2
17:31 56.1 °F /  13.4 °C 38.7 °F /  3.7 °C 30.29 in /  1025.6 hPa East 5.0 mph /  8 km/h 10.0 mph /  16.1 km/h 52 % 0.00 in /  0 mm 227 W/m2
17:36 56.1 °F /  13.4 °C 38.7 °F /  3.7 °C 30.29 in /  1025.6 hPa East 6.0 mph /  9.7 km/h 11.0 mph /  17.7 km/h 52 % 0.00 in /  0 mm 227 W/m2
17:41 55.8 °F /  13.2 °C 37.9 °F /  3.3 °C 30.29 in /  1025.6 hPa East 6.0 mph /  9.7 km/h 11.0 mph /  17.7 km/h 51 % 0.00 in /  0 mm 213 W/m2
17:46 55.2 °F /  12.9 °C 37.9 °F /  3.3 °C 30.29 in /  1025.6 hPa East 6.0 mph /  9.7 km/h 11.0 mph /  17.7 km/h 52 % 0.00 in /  0 mm 158 W/m2
17:51 54.9 °F /  12.7 °C 38.0 °F /  3.3 °C 30.29 in /  1025.6 hPa East 6.0 mph /  9.7 km/h 12.0 mph /  19.3 km/h 53 % 0.00 in /  0 mm 120 W/m2
17:56 54.5 °F /  12.5 °C 38.2 °F /  3.4 °C 30.29 in /  1025.6 hPa East 6.0 mph /  9.7 km/h 12.0 mph /  19.3 km/h 54 % 0.00 in /  0 mm 88 W/m2
18:01 54.1 °F /  12.3 °C 38.3 °F /  3.5 °C 30.29 in /  1025.6 hPa East 6.0 mph /  9.7 km/h 12.0 mph /  19.3 km/h 55 % 0.00 in /  0 mm 74 W/m2
18:07 53.6 °F /  12 °C 37.8 °F /  3.2 °C 30.29 in /  1025.6 hPa ENE 5.0 mph /  8 km/h 11.0 mph /  17.7 km/h 55 % 0.00 in /  0 mm 69 W/m2
18:12 53.2 °F /  11.8 °C 38.4 °F /  3.6 °C 30.29 in /  1025.6 hPa ENE 5.0 mph /  8 km/h 11.0 mph /  17.7 km/h 57 % 0.00 in /  0 mm 67 W/m2
18:17 52.9 °F /  11.6 °C 37.6 °F /  3.1 °C 30.29 in /  1025.6 hPa East 5.0 mph /  8 km/h 12.0 mph /  19.3 km/h 56 % 0.00 in /  0 mm 63 W/m2
18:22 52.5 °F /  11.4 °C 37.3 °F /  2.9 °C 30.29 in /  1025.6 hPa East 5.0 mph /  8 km/h 12.0 mph /  19.3 km/h 56 % 0.00 in /  0 mm 60 W/m2
18:27 52.2 °F /  11.2 °C 36.9 °F /  2.7 °C 30.29 in /  1025.6 hPa East 6.0 mph /  9.7 km/h 11.0 mph /  17.7 km/h 56 % 0.00 in /  0 mm 54 W/m2
18:32 51.6 °F /  10.9 °C 36.9 °F /  2.7 °C 30.29 in /  1025.6 hPa ENE 6.0 mph /  9.7 km/h 13.0 mph /  20.9 km/h 57 % 0.00 in /  0 mm 47 W/m2
18:37 51.4 °F /  10.8 °C 36.7 °F /  2.6 °C 30.29 in /  1025.6 hPa ENE 6.0 mph /  9.7 km/h 13.0 mph /  20.9 km/h 57 % 0.00 in /  0 mm 46 W/m2
18:42 51.1 °F /  10.6 °C 36.4 °F /  2.4 °C 30.29 in /  1025.6 hPa ENE 5.0 mph /  8 km/h 10.0 mph /  16.1 km/h 57 % 0.00 in /  0 mm 44 W/m2
18:47 51.1 °F /  10.6 °C 36.8 °F /  2.7 °C 30.29 in /  1025.6 hPa East 4.0 mph /  6.4 km/h 9.0 mph /  14.5 km/h 58 % 0.00 in /  0 mm 37 W/m2
18:52 50.7 °F /  10.4 °C 36.9 °F /  2.7 °C 30.30 in /  1026 hPa East 4.0 mph /  6.4 km/h 9.0 mph /  14.5 km/h 59 % 0.00 in /  0 mm 35 W/m2
18:57 50.4 °F /  10.2 °C 37.0 °F /  2.8 °C 30.30 in /  1026 hPa ENE 5.0 mph /  8 km/h 10.0 mph /  16.1 km/h 60 % 0.00 in /  0 mm 32 W/m2
19:02 50.2 °F /  10.1 °C 36.8 °F /  2.7 °C 30.30 in /  1026 hPa ENE 5.0 mph /  8 km/h 10.0 mph /  16.1 km/h 60 % 0.00 in /  0 mm 28 W/m2
19:07 49.8 °F /  9.9 °C 36.9 °F /  2.7 °C 30.30 in /  1026 hPa East 6.0 mph /  9.7 km/h 11.0 mph /  17.7 km/h 61 % 0.00 in /  0 mm 21 W/m2
19:12 49.6 °F /  9.8 °C 37.1 °F /  2.8 °C 30.30 in /  1026 hPa ENE 6.0 mph /  9.7 km/h 11.0 mph /  17.7 km/h 62 % 0.00 in /  0 mm 16 W/m2
19:17 49.5 °F /  9.7 °C 37.4 °F /  3 °C 30.30 in /  1026 hPa East 4.0 mph /  6.4 km/h 9.0 mph /  14.5 km/h 63 % 0.00 in /  0 mm 11 W/m2
19:22 49.3 °F /  9.6 °C 37.6 °F /  3.1 °C 30.30 in /  1026 hPa East 3.0 mph /  4.8 km/h 9.0 mph /  14.5 km/h 64 % 0.00 in /  0 mm 7 W/m2
19:27 48.9 °F /  9.4 °C 37.7 °F /  3.2 °C 30.30 in /  1026 hPa East 3.0 mph /  4.8 km/h 8.0 mph /  12.9 km/h 65 % 0.00 in /  0 mm 0 W/m2
19:32 48.7 °F /  9.3 °C 37.9 °F /  3.3 °C 30.29 in /  1025.6 hPa ENE 3.0 mph /  4.8 km/h 8.0 mph /  12.9 km/h 66 % 0.00 in /  0 mm 0 W/m2
19:37 48.6 °F /  9.2 °C 37.7 °F /  3.2 °C 30.29 in /  1025.6 hPa ENE 4.0 mph /  6.4 km/h 9.0 mph /  14.5 km/h 66 % 0.00 in /  0 mm 0 W/m2
19:42 48.4 °F /  9.1 °C 37.9 °F /  3.3 °C 30.30 in /  1026 hPa ENE 4.0 mph /  6.4 km/h 9.0 mph /  14.5 km/h 67 % 0.00 in /  0 mm 0 W/m2
19:47 48.0 °F /  8.9 °C 37.6 °F /  3.1 °C 30.30 in /  1026 hPa ENE 3.0 mph /  4.8 km/h 8.0 mph /  12.9 km/h 67 % 0.00 in /  0 mm 0 W/m2
19:52 47.8 °F /  8.8 °C 37.8 °F /  3.2 °C 30.30 in /  1026 hPa ENE 3.0 mph /  4.8 km/h 8.0 mph /  12.9 km/h 68 % 0.00 in /  0 mm 0 W/m2
19:58 47.7 °F /  8.7 °C 37.6 °F /  3.1 °C 30.30 in /  1026 hPa ENE 4.0 mph /  6.4 km/h 8.0 mph /  12.9 km/h 68 % 0.00 in /  0 mm 0 W/m2
20:03 47.5 °F /  8.6 °C 37.8 °F /  3.2 °C 30.30 in /  1026 hPa ENE 3.0 mph /  4.8 km/h 8.0 mph /  12.9 km/h 69 % 0.00 in /  0 mm 0 W/m2
20:08 47.5 °F /  8.6 °C 37.8 °F /  3.2 °C 30.30 in /  1026 hPa ENE 3.0 mph /  4.8 km/h 7.0 mph /  11.3 km/h 69 % 0.00 in /  0 mm 0 W/m2
20:13 47.1 °F /  8.4 °C 37.8 °F /  3.2 °C 30.30 in /  1026 hPa ENE 3.0 mph /  4.8 km/h 8.0 mph /  12.9 km/h 70 % 0.00 in /  0 mm 0 W/m2
20:18 47.1 °F /  8.4 °C 37.8 °F /  3.2 °C 30.30 in /  1026 hPa ENE 4.0 mph /  6.4 km/h 8.0 mph /  12.9 km/h 70 % 0.00 in /  0 mm 0 W/m2
20:23 46.9 °F /  8.3 °C 38.0 °F /  3.3 °C 30.30 in /  1026 hPa ENE 5.0 mph /  8 km/h 9.0 mph /  14.5 km/h 71 % 0.00 in /  0 mm 0 W/m2
20:28 46.8 °F /  8.2 °C 37.9 °F /  3.3 °C 30.30 in /  1026 hPa ENE 5.0 mph /  8 km/h 9.0 mph /  14.5 km/h 71 % 0.00 in /  0 mm 0 W/m2
20:33 46.6 °F /  8.1 °C 37.7 °F /  3.2 °C 30.30 in /  1026 hPa ENE 4.0 mph /  6.4 km/h 9.0 mph /  14.5 km/h 71 % 0.00 in /  0 mm 0 W/m2
20:35 46.6 °F /  8.1 °C 37.7 °F /  3.2 °C 30.31 in /  1026.3 hPa ENE 4.0 mph /  6.4 km/h 9.0 mph /  14.5 km/h 71 % 0.00 in /  0 mm 0 W/m2
20:40 46.2 °F /  7.9 °C 37.7 °F /  3.2 °C 30.31 in /  1026.3 hPa ENE 4.0 mph /  6.4 km/h 9.0 mph /  14.5 km/h 72 % 0.00 in /  0 mm 0 W/m2
20:45 46.0 °F /  7.8 °C 37.5 °F /  3.1 °C 30.31 in /  1026.3 hPa East 3.0 mph /  4.8 km/h 8.0 mph /  12.9 km/h 72 % 0.00 in /  0 mm 0 W/m2
20:50 46.0 °F /  7.8 °C 37.5 °F /  3.1 °C 30.31 in /  1026.3 hPa East 2.0 mph /  3.2 km/h 8.0 mph /  12.9 km/h 72 % 0.00 in /  0 mm 0 W/m2
20:55 45.9 °F /  7.7 °C 37.7 °F /  3.2 °C 30.31 in /  1026.3 hPa ENE 2.0 mph /  3.2 km/h 7.0 mph /  11.3 km/h 73 % 0.00 in /  0 mm 0 W/m2
21:00 45.7 °F /  7.6 °C 37.9 °F /  3.3 °C 30.31 in /  1026.3 hPa ENE 2.0 mph /  3.2 km/h 8.0 mph /  12.9 km/h 74 % 0.00 in /  0 mm 0 W/m2
21:05 45.3 °F /  7.4 °C 37.5 °F /  3.1 °C 30.31 in /  1026.3 hPa ENE 3.0 mph /  4.8 km/h 8.0 mph /  12.9 km/h 74 % 0.00 in /  0 mm 0 W/m2
21:10 45.1 °F /  7.3 °C 38.0 °F /  3.3 °C 30.31 in /  1026.3 hPa ENE 3.0 mph /  4.8 km/h 7.0 mph /  11.3 km/h 76 % 0.00 in /  0 mm 0 W/m2
21:15 45.0 °F /  7.2 °C 38.2 °F /  3.4 °C 30.31 in /  1026.3 hPa ENE 4.0 mph /  6.4 km/h 11.0 mph /  17.7 km/h 77 % 0.00 in /  0 mm 0 W/m2
21:20 45.0 °F /  7.2 °C 38.2 °F /  3.4 °C 30.31 in /  1026.3 hPa ENE 5.0 mph /  8 km/h 11.0 mph /  17.7 km/h 77 % 0.00 in /  0 mm 0 W/m2
21:25 44.8 °F /  7.1 °C 38.7 °F /  3.7 °C 30.31 in /  1026.3 hPa ENE 5.0 mph /  8 km/h 10.0 mph /  16.1 km/h 79 % 0.00 in /  0 mm 0 W/m2
21:30 44.6 °F /  7 °C 38.8 °F /  3.8 °C 30.31 in /  1026.3 hPa ENE 5.0 mph /  8 km/h 12.0 mph /  19.3 km/h 80 % 0.00 in /  0 mm 0 W/m2
21:35 44.4 °F /  6.9 °C 38.6 °F /  3.7 °C 30.32 in /  1026.6 hPa ENE 4.0 mph /  6.4 km/h 12.0 mph /  19.3 km/h 80 % 0.00 in /  0 mm 0 W/m2
21:40 44.2 °F /  6.8 °C 38.8 °F /  3.8 °C 30.32 in /  1026.6 hPa ENE 4.0 mph /  6.4 km/h 10.0 mph /  16.1 km/h 81 % 0.00 in /  0 mm 0 W/m2
21:45 44.1 °F /  6.7 °C 38.9 °F /  3.8 °C 30.32 in /  1026.6 hPa ENE 5.0 mph /  8 km/h 10.0 mph /  16.1 km/h 82 % 0.00 in /  0 mm 0 W/m2
21:50 43.9 °F /  6.6 °C 38.7 °F /  3.7 °C 30.32 in /  1026.6 hPa ENE 5.0 mph /  8 km/h 13.0 mph /  20.9 km/h 82 % 0.00 in /  0 mm 0 W/m2
21:55 43.9 °F /  6.6 °C 39.4 °F /  4.1 °C 30.32 in /  1026.6 hPa East 6.0 mph /  9.7 km/h 13.0 mph /  20.9 km/h 84 % 0.00 in /  0 mm 0 W/m2
22:00 43.9 °F /  6.6 °C 39.7 °F /  4.3 °C 30.32 in /  1026.6 hPa ENE 6.0 mph /  9.7 km/h 11.0 mph /  17.7 km/h 85 % 0.00 in /  0 mm 0 W/m2
22:05 43.9 °F /  6.6 °C 40.0 °F /  4.4 °C 30.32 in /  1026.6 hPa East 6.0 mph /  9.7 km/h 11.0 mph /  17.7 km/h 86 % 0.00 in /  0 mm 0 W/m2
22:10 43.9 °F /  6.6 °C 40.3 °F /  4.6 °C 30.33 in /  1027 hPa East 6.0 mph /  9.7 km/h 11.0 mph /  17.7 km/h 87 % 0.00 in /  0 mm 0 W/m2
22:15 43.9 °F /  6.6 °C 40.6 °F /  4.8 °C 30.32 in /  1026.6 hPa East 5.0 mph /  8 km/h 12.0 mph /  19.3 km/h 88 % 0.00 in /  0 mm 0 W/m2
22:20 43.9 °F /  6.6 °C 40.6 °F /  4.8 °C 30.32 in /  1026.6 hPa East 5.0 mph /  8 km/h 12.0 mph /  19.3 km/h 88 % 0.00 in /  0 mm 0 W/m2
22:25 43.9 °F /  6.6 °C 40.8 °F /  4.9 °C 30.33 in /  1027 hPa East 6.0 mph /  9.7 km/h 12.0 mph /  19.3 km/h 89 % 0.00 in /  0 mm 0 W/m2
22:30 43.9 °F /  6.6 °C 40.8 °F /  4.9 °C 30.33 in /  1027 hPa East 6.0 mph /  9.7 km/h 13.0 mph /  20.9 km/h 89 % 0.00 in /  0 mm 0 W/m2
22:35 43.9 °F /  6.6 °C 40.8 °F /  4.9 °C 30.33 in /  1027 hPa East 6.0 mph /  9.7 km/h 13.0 mph /  20.9 km/h 89 % 0.00 in /  0 mm 0 W/m2
22:40 43.9 °F /  6.6 °C 40.6 °F /  4.8 °C 30.33 in /  1027 hPa East 6.0 mph /  9.7 km/h 11.0 mph /  17.7 km/h 88 % 0.00 in /  0 mm 0 W/m2
22:45 44.1 °F /  6.7 °C 40.7 °F /  4.8 °C 30.33 in /  1027 hPa East 5.0 mph /  8 km/h 10.0 mph /  16.1 km/h 88 % 0.00 in /  0 mm 0 W/m2
22:50 44.1 °F /  6.7 °C 40.7 °F /  4.8 °C 30.33 in /  1027 hPa ESE 6.0 mph /  9.7 km/h 11.0 mph /  17.7 km/h 88 % 0.00 in /  0 mm 0 W/m2
22:56 44.1 °F /  6.7 °C 40.4 °F /  4.7 °C 30.33 in /  1027 hPa ESE 8.0 mph /  12.9 km/h 16.0 mph /  25.7 km/h 87 % 0.00 in /  0 mm 0 W/m2
23:01 43.9 °F /  6.6 °C 40.3 °F /  4.6 °C 30.33 in /  1027 hPa ESE 8.0 mph /  12.9 km/h 16.0 mph /  25.7 km/h 87 % 0.00 in /  0 mm 0 W/m2
23:06 43.9 °F /  6.6 °C 40.3 °F /  4.6 °C 30.33 in /  1027 hPa ESE 6.0 mph /  9.7 km/h 13.0 mph /  20.9 km/h 87 % 0.00 in /  0 mm 0 W/m2
23:11 44.1 °F /  6.7 °C 40.4 °F /  4.7 °C 30.33 in /  1027 hPa ESE 5.0 mph /  8 km/h 10.0 mph /  16.1 km/h 87 % 0.00 in /  0 mm 0 W/m2
23:16 44.1 °F /  6.7 °C 40.4 °F /  4.7 °C 30.32 in /  1026.6 hPa East 6.0 mph /  9.7 km/h 11.0 mph /  17.7 km/h 87 % 0.00 in /  0 mm 0 W/m2
23:21 44.1 °F /  6.7 °C 40.4 °F /  4.7 °C 30.32 in /  1026.6 hPa East 5.0 mph /  8 km/h 11.0 mph /  17.7 km/h 87 % 0.00 in /  0 mm 0 W/m2
23:26 44.1 °F /  6.7 °C 40.4 °F /  4.7 °C 30.32 in /  1026.6 hPa ESE 5.0 mph /  8 km/h 11.0 mph /  17.7 km/h 87 % 0.00 in /  0 mm 0 W/m2
23:31 44.1 °F /  6.7 °C 40.4 °F /  4.7 °C 30.32 in /  1026.6 hPa ESE 5.0 mph /  8 km/h 11.0 mph /  17.7 km/h 87 % 0.00 in /  0 mm 0 W/m2
23:36 44.1 °F /  6.7 °C 40.4 °F /  4.7 °C 30.32 in /  1026.6 hPa East 3.0 mph /  4.8 km/h 10.0 mph /  16.1 km/h 87 % 0.00 in /  0 mm 0 W/m2
23:41 44.2 °F /  6.8 °C 40.6 °F /  4.8 °C 30.32 in /  1026.6 hPa East 2.0 mph /  3.2 km/h 7.0 mph /  11.3 km/h 87 % 0.00 in /  0 mm 0 W/m2
23:46 44.2 °F /  6.8 °C 40.6 °F /  4.8 °C 30.32 in /  1026.6 hPa East 2.0 mph /  3.2 km/h 7.0 mph /  11.3 km/h 87 % 0.00 in /  0 mm 0 W/m2
23:51 44.1 °F /  6.7 °C 40.4 °F /  4.7 °C 30.32 in /  1026.6 hPa East 4.0 mph /  6.4 km/h 12.0 mph /  19.3 km/h 87 % 0.00 in /  0 mm 0 W/m2
23:56 44.1 °F /  6.7 °C 40.4 °F /  4.7 °C 30.32 in /  1026.6 hPa ESE 6.0 mph /  9.7 km/h 12.0 mph /  19.3 km/h 87 % 0.00 in /  0 mm 0 W/m2
Delerius-Weather
Compliments of Weather Underground - 2.25 mb

Data updates at regular intervals.